Time;durP1;ratioP1;P1;durP2;ratioP2;P2;SDS_P1;SDS_P2;PMS_P1;PMS_P2;Temp;Humidity;BMP_temperature;BMP_pressure;BME280_temperature;BME280_humidity;BME280_pressure;Samples;Min_cycle;Max_cycle;Signal;HPM_P1;HPM_P2
2023/09/08 00:02:26;;;;;;;7.43;6.13;;;18.80;99.90;;;;;;5157253;27;20042;-74
2023/09/08 00:04:52;;;;;;;8.43;5.80;;;18.80;99.90;;;;;;5156784;27;20038;-73
2023/09/08 00:07:18;;;;;;;8.85;6.30;;;18.80;99.90;;;;;;5149105;27;20483;-73
2023/09/08 00:09:44;;;;;;;6.70;6.00;;;18.80;99.90;;;;;;5137109;27;20043;-73
2023/09/08 00:12:09;;;;;;;7.15;5.85;;;18.90;99.90;;;;;;5139083;27;20049;-74
2023/09/08 00:14:35;;;;;;;7.18;5.75;;;18.80;99.90;;;;;;5157306;27;20114;-73
2023/09/08 00:17:01;;;;;;;7.65;6.50;;;18.80;99.90;;;;;;5138766;27;20499;-73
2023/09/08 00:19:26;;;;;;;7.60;6.25;;;18.80;99.90;;;;;;5157665;27;20039;-73
2023/09/08 00:21:52;;;;;;;10.90;6.30;;;18.80;99.90;;;;;;5157434;27;20054;-74
2023/09/08 00:24:18;;;;;;;7.90;5.75;;;18.70;99.90;;;;;;5157294;27;20074;-73
2023/09/08 00:26:44;;;;;;;7.68;6.25;;;18.70;99.90;;;;;;5157315;27;20099;-73
2023/09/08 00:29:10;;;;;;;6.55;5.75;;;18.70;99.90;;;;;;5157155;27;20518;-74
2023/09/08 00:31:36;;;;;;;7.03;6.18;;;18.70;99.90;;;;;;5144299;27;20051;-74
2023/09/08 00:34:01;;;;;;;7.75;6.20;;;18.60;99.90;;;;;;5155980;27;20498;-74
2023/09/08 00:36:27;;;;;;;9.00;6.15;;;18.60;99.90;;;;;;5156963;27;20115;-73
2023/09/08 00:38:53;;;;;;;6.53;5.65;;;18.60;99.90;;;;;;5151857;27;20042;-74
2023/09/08 00:41:18;;;;;;;7.10;5.50;;;18.50;99.90;;;;;;5123902;27;20046;-74
2023/09/08 00:43:44;;;;;;;7.30;5.95;;;18.40;99.90;;;;;;5156826;27;20039;-73
2023/09/08 00:46:10;;;;;;;8.55;6.53;;;18.40;99.90;;;;;;5156706;27;20038;-73
2023/09/08 00:48:37;;;;;;;7.22;6.13;;;18.30;99.90;;;;;;5156322;27;20041;-74
2023/09/08 00:51:05;;;;;;;7.30;5.85;;;18.20;99.90;;;;;;5138560;27;20047;-73
2023/09/08 00:53:31;;;;;;;7.72;5.53;;;18.10;99.90;;;;;;5157040;27;20047;-73
2023/09/08 00:55:58;;;;;;;6.72;5.93;;;18.00;99.90;;;;;;5107099;27;20062;-73
2023/09/08 00:58:24;;;;;;;6.90;5.63;;;17.90;99.90;;;;;;5156730;27;20050;-73
2023/09/08 01:00:50;;;;;;;7.50;5.45;;;17.80;99.90;;;;;;5151445;27;20455;-73
2023/09/08 01:03:16;;;;;;;8.40;5.60;;;17.80;99.90;;;;;;5156572;27;20058;-73
2023/09/08 01:05:43;;;;;;;6.20;5.60;;;17.70;99.90;;;;;;5150474;27;20124;-73
2023/09/08 01:08:09;;;;;;;6.28;5.63;;;17.70;99.90;;;;;;5156767;27;20031;-73
2023/09/08 01:10:36;;;;;;;7.28;5.72;;;17.60;99.90;;;;;;5156611;27;20046;-73
2023/09/08 01:13:03;;;;;;;7.13;6.10;;;17.50;99.90;;;;;;5157190;27;20042;-74
2023/09/08 01:15:28;;;;;;;7.53;6.15;;;17.50;99.90;;;;;;5156433;27;20046;-74
2023/09/08 01:17:54;;;;;;;8.73;6.35;;;17.40;99.90;;;;;;5156349;27;20394;-73
2023/09/08 01:20:27;;;;;;;9.25;6.07;;;17.40;99.90;;;;;;5156510;27;20042;-73
2023/09/08 01:23:12;;;;;;;7.50;6.13;;;17.30;99.90;;;;;;5155472;27;20034;-73
2023/09/08 01:25:49;;;;;;;8.85;6.25;;;17.30;99.90;;;;;;5155297;27;20067;-73
2023/09/08 01:28:16;;;;;;;9.60;6.30;;;17.30;99.90;;;;;;5144184;27;20073;-73
2023/09/08 01:30:41;;;;;;;7.70;6.60;;;17.30;99.90;;;;;;5148238;27;20043;-73
2023/09/08 01:33:08;;;;;;;8.13;6.32;;;17.20;99.90;;;;;;5148048;27;20088;-74
2023/09/08 01:35:34;;;;;;;9.15;6.25;;;17.20;99.90;;;;;;5145415;27;20118;-73
2023/09/08 01:38:00;;;;;;;8.25;6.15;;;17.20;99.90;;;;;;5155801;27;20122;-74
2023/09/08 01:40:25;;;;;;;8.23;6.60;;;17.10;99.90;;;;;;5155626;27;20050;-73
2023/09/08 01:42:51;;;;;;;8.10;6.57;;;17.10;99.90;;;;;;5155758;27;20082;-73
2023/09/08 01:45:17;;;;;;;8.40;6.05;;;17.10;99.90;;;;;;5156067;27;20125;-73
2023/09/08 01:47:42;;;;;;;10.25;6.75;;;17.00;99.90;;;;;;5150221;27;20428;-73
2023/09/08 01:50:09;;;;;;;8.25;6.55;;;17.00;99.90;;;;;;5145606;27;20042;-74
2023/09/08 01:52:34;;;;;;;8.23;6.68;;;17.00;99.90;;;;;;5155059;27;20046;-73
2023/09/08 01:55:00;;;;;;;7.57;6.05;;;17.00;99.90;;;;;;5155626;27;20054;-73
2023/09/08 01:57:26;;;;;;;8.63;6.40;;;17.00;99.90;;;;;;5155342;27;20047;-74
2023/09/08 01:59:51;;;;;;;8.75;6.82;;;17.00;99.90;;;;;;5149331;27;20133;-73
2023/09/08 02:02:17;;;;;;;8.95;6.55;;;16.90;99.90;;;;;;5136729;27;20039;-74
2023/09/08 02:04:43;;;;;;;8.20;6.82;;;16.90;99.90;;;;;;5154887;27;20144;-73
2023/09/08 02:07:08;;;;;;;8.57;6.60;;;16.90;99.90;;;;;;5155138;27;20035;-73
2023/09/08 02:09:35;;;;;;;7.63;6.35;;;16.80;99.90;;;;;;5155123;27;20046;-73
2023/09/08 02:12:01;;;;;;;7.65;6.43;;;16.70;99.90;;;;;;5155143;27;20125;-74
2023/09/08 02:14:27;;;;;;;8.32;6.15;;;16.70;99.90;;;;;;5137038;27;20042;-73
2023/09/08 02:16:54;;;;;;;8.75;6.70;;;16.70;99.90;;;;;;5155294;27;20043;-73
2023/09/08 02:19:20;;;;;;;8.30;6.35;;;16.60;99.90;;;;;;5155397;27;20038;-73
2023/09/08 02:21:46;;;;;;;7.88;6.60;;;16.60;99.90;;;;;;5108095;27;20458;-73
2023/09/08 02:24:12;;;;;;;8.48;6.35;;;16.60;99.90;;;;;;5154806;27;20045;-73
2023/09/08 02:26:41;;;;;;;9.10;6.60;;;16.60;99.90;;;;;;5137052;27;20039;-72
2023/09/08 02:29:07;;;;;;;8.40;6.60;;;16.50;99.90;;;;;;5155243;27;20049;-74
2023/09/08 02:31:33;;;;;;;8.90;6.70;;;16.50;99.90;;;;;;5154813;27;20046;-73
2023/09/08 02:33:59;;;;;;;7.60;6.53;;;16.50;99.90;;;;;;5153793;27;20068;-73
2023/09/08 02:36:27;;;;;;;8.07;6.63;;;16.50;99.90;;;;;;5154528;27;20126;-72
2023/09/08 02:38:54;;;;;;;5.95;5.30;;;16.50;99.90;;;;;;5135865;27;20043;-72
2023/09/08 02:41:20;;;;;;;6.63;5.63;;;16.40;99.90;;;;;;5154781;27;20078;-73
2023/09/08 02:43:46;;;;;;;7.75;5.88;;;16.30;99.90;;;;;;5136254;27;20053;-72
2023/09/08 02:46:11;;;;;;;8.40;6.00;;;16.30;99.90;;;;;;5154970;27;20117;-72
2023/09/08 02:48:38;;;;;;;8.95;6.82;;;16.30;99.90;;;;;;5154783;27;20041;-74
2023/09/08 02:51:04;;;;;;;9.07;6.32;;;16.20;99.90;;;;;;5154910;27;20034;-74
2023/09/08 02:53:30;;;;;;;9.40;6.68;;;16.20;99.90;;;;;;5155121;27;20047;-74
2023/09/08 02:55:56;;;;;;;8.38;6.88;;;16.20;99.90;;;;;;5131116;27;20047;-74
2023/09/08 02:58:22;;;;;;;8.50;6.72;;;16.20;99.90;;;;;;5154163;27;20084;-74
2023/09/08 03:00:48;;;;;;;9.50;6.70;;;16.10;99.90;;;;;;5154589;27;20054;-74
2023/09/08 03:03:14;;;;;;;8.40;6.90;;;16.10;99.90;;;;;;5142773;27;20559;-74
2023/09/08 03:05:40;;;;;;;9.90;6.80;;;16.10;99.90;;;;;;5154013;27;20043;-74
2023/09/08 03:08:06;;;;;;;9.73;7.32;;;16.00;99.90;;;;;;5154781;27;20491;-74
2023/09/08 03:10:34;;;;;;;9.13;7.05;;;16.00;99.90;;;;;;5154180;27;20070;-74
2023/09/08 03:13:04;;;;;;;8.13;6.80;;;16.00;99.90;;;;;;5154112;27;20125;-74
2023/09/08 03:15:30;;;;;;;9.20;7.40;;;16.00;99.90;;;;;;5154553;27;20659;-74
2023/09/08 03:17:58;;;;;;;8.50;7.03;;;16.00;99.90;;;;;;5153048;27;20127;-74
2023/09/08 03:20:24;;;;;;;8.63;6.40;;;16.00;99.90;;;;;;5154152;27;20047;-74
2023/09/08 03:22:49;;;;;;;9.65;7.43;;;15.90;99.90;;;;;;5155450;27;20448;-74
2023/09/08 03:25:15;;;;;;;7.95;6.88;;;15.90;99.90;;;;;;5136267;27;20046;-73
2023/09/08 03:27:41;;;;;;;9.13;7.57;;;15.90;99.90;;;;;;5154513;27;20038;-74
2023/09/08 03:30:07;;;;;;;9.30;7.75;;;15.90;99.90;;;;;;5154137;27;20042;-74
2023/09/08 03:32:33;;;;;;;9.27;7.18;;;15.80;99.90;;;;;;5144220;27;20046;-74
2023/09/08 03:34:58;;;;;;;10.25;7.30;;;15.80;99.90;;;;;;5147228;27;20042;-74
2023/09/08 03:37:26;;;;;;;10.10;7.88;;;15.80;99.90;;;;;;5142528;27;20035;-74
2023/09/08 03:39:52;;;;;;;9.25;7.38;;;15.80;99.90;;;;;;5143570;27;20096;-73
2023/09/08 03:42:18;;;;;;;8.95;7.13;;;15.80;99.90;;;;;;5116757;27;20050;-73
2023/09/08 03:44:43;;;;;;;12.13;7.80;;;15.80;99.90;;;;;;5155843;27;20038;-73
2023/09/08 03:47:09;;;;;;;7.95;7.15;;;15.80;99.90;;;;;;5139445;27;20134;-73
2023/09/08 03:49:35;;;;;;;7.63;6.82;;;15.90;99.90;;;;;;5150971;27;20035;-73
2023/09/08 03:52:01;;;;;;;10.27;7.50;;;15.80;99.90;;;;;;5151865;27;20039;-73
2023/09/08 03:54:27;;;;;;;10.25;7.93;;;15.80;99.90;;;;;;5157462;27;20042;-73
2023/09/08 03:56:52;;;;;;;9.85;7.50;;;15.80;99.90;;;;;;5138946;27;20043;-73
2023/09/08 03:59:18;;;;;;;9.07;7.50;;;15.90;99.90;;;;;;5157881;27;20046;-73
2023/09/08 04:01:43;;;;;;;8.60;6.82;;;15.80;99.90;;;;;;5135411;27;20387;-73
2023/09/08 04:04:09;;;;;;;9.50;7.72;;;15.90;99.90;;;;;;5136233;27;20047;-73
2023/09/08 04:06:35;;;;;;;9.52;7.50;;;15.80;99.90;;;;;;5136116;27;20045;-74
2023/09/08 04:09:01;;;;;;;9.15;7.32;;;15.80;99.90;;;;;;5134887;27;20079;-73
2023/09/08 04:11:26;;;;;;;8.52;7.25;;;15.90;99.90;;;;;;5133138;27;20053;-73
2023/09/08 04:13:52;;;;;;;10.13;8.25;;;15.90;99.90;;;;;;5135351;27;20050;-73
2023/09/08 04:16:18;;;;;;;11.00;8.13;;;15.90;99.90;;;;;;5136994;27;20122;-73
2023/09/08 04:18:44;;;;;;;9.48;8.10;;;15.90;99.90;;;;;;5136548;27;20070;-73
2023/09/08 04:21:10;;;;;;;9.50;8.15;;;15.90;99.90;;;;;;5136380;27;20042;-74
2023/09/08 04:23:36;;;;;;;10.15;7.88;;;16.00;99.90;;;;;;5135382;27;20055;-73
2023/09/08 04:26:02;;;;;;;10.32;8.23;;;15.90;99.90;;;;;;5136155;27;20123;-73
2023/09/08 04:28:28;;;;;;;9.88;7.88;;;16.00;99.90;;;;;;5136452;27;20046;-73
2023/09/08 04:30:53;;;;;;;9.07;7.38;;;16.00;99.90;;;;;;5118045;27;20031;-73
2023/09/08 04:33:19;;;;;;;9.68;7.65;;;16.00;99.90;;;;;;5135001;27;20495;-73
2023/09/08 04:35:45;;;;;;;10.48;7.78;;;16.00;99.90;;;;;;5135941;27;20042;-73
2023/09/08 04:38:11;;;;;;;9.18;7.38;;;16.00;99.90;;;;;;5130826;27;20035;-73
2023/09/08 04:40:40;;;;;;;8.30;7.15;;;16.00;99.90;;;;;;5136561;27;20054;-73
2023/09/08 04:43:05;;;;;;;8.63;7.15;;;16.00;99.90;;;;;;5118118;27;20061;-73
2023/09/08 04:45:31;;;;;;;8.18;6.93;;;16.00;99.90;;;;;;5136428;27;20050;-73
2023/09/08 04:47:57;;;;;;;9.23;7.18;;;15.90;99.90;;;;;;5136205;27;20035;-73
2023/09/08 04:50:22;;;;;;;7.60;6.68;;;15.90;99.90;;;;;;5135818;27;20039;-73
2023/09/08 04:52:48;;;;;;;9.77;7.15;;;15.90;99.90;;;;;;5135596;27;20399;-74
2023/09/08 04:55:14;;;;;;;9.82;7.60;;;15.80;99.90;;;;;;5126071;27;20551;-73
2023/09/08 04:57:40;;;;;;;9.52;7.30;;;15.80;99.90;;;;;;5135506;27;20061;-73
2023/09/08 05:00:06;;;;;;;8.98;6.63;;;15.80;99.90;;;;;;5117066;27;20050;-73
2023/09/08 05:02:32;;;;;;;8.82;6.47;;;15.80;99.90;;;;;;5122281;27;20127;-72
2023/09/08 05:04:59;;;;;;;8.65;6.80;;;15.80;99.90;;;;;;5126723;27;20070;-73
2023/09/08 05:07:25;;;;;;;9.10;7.07;;;15.80;99.90;;;;;;5126418;27;20091;-73
2023/09/08 05:09:51;;;;;;;7.97;6.00;;;15.80;99.90;;;;;;5135920;27;20130;-73
2023/09/08 05:12:16;;;;;;;8.02;6.10;;;15.80;99.90;;;;;;5135261;27;20051;-73
2023/09/08 05:14:42;;;;;;;8.95;6.55;;;15.80;99.90;;;;;;5135740;27;20039;-73
2023/09/08 05:17:08;;;;;;;8.55;6.75;;;15.80;99.90;;;;;;5135514;27;20047;-73
2023/09/08 05:19:33;;;;;;;8.02;6.57;;;15.80;99.90;;;;;;5134345;27;20411;-73
2023/09/08 05:21:59;;;;;;;8.13;7.00;;;15.80;99.90;;;;;;5135254;27;20043;-73
2023/09/08 05:24:26;;;;;;;10.50;7.18;;;15.80;99.90;;;;;;5135660;27;20047;-72
2023/09/08 05:26:52;;;;;;;8.82;6.93;;;15.80;99.90;;;;;;5136002;27;20046;-73
2023/09/08 05:29:18;;;;;;;8.82;6.70;;;15.90;99.90;;;;;;5135603;27;20398;-73
2023/09/08 05:31:44;;;;;;;8.38;6.90;;;15.90;99.90;;;;;;5135411;27;20121;-73
2023/09/08 05:34:10;;;;;;;9.60;6.85;;;15.90;99.90;;;;;;5133559;27;20135;-73
2023/09/08 05:36:38;;;;;;;10.43;6.75;;;16.00;99.90;;;;;;5133813;27;20039;-72
2023/09/08 05:39:04;;;;;;;8.45;7.00;;;16.00;99.90;;;;;;5134615;27;20050;-72
2023/09/08 05:41:30;;;;;;;8.48;6.78;;;16.00;99.90;;;;;;5135286;27;20077;-72
2023/09/08 05:43:55;;;;;;;7.82;6.68;;;16.10;99.90;;;;;;5135100;27;20472;-72
2023/09/08 05:46:21;;;;;;;10.35;7.10;;;16.10;99.90;;;;;;5134718;27;20051;-73
2023/09/08 05:48:47;;;;;;;8.57;6.43;;;16.20;99.90;;;;;;5134400;27;20070;-72
2023/09/08 05:51:14;;;;;;;10.80;7.50;;;16.30;99.90;;;;;;5133554;27;20471;-73
2023/09/08 05:53:40;;;;;;;9.30;6.70;;;16.30;99.90;;;;;;5134401;27;20392;-73
2023/09/08 05:56:06;;;;;;;8.70;6.97;;;16.40;99.90;;;;;;5129984;27;20049;-72
2023/09/08 05:58:33;;;;;;;8.05;6.70;;;16.40;99.90;;;;;;5134560;27;20050;-72
2023/09/08 06:01:08;;;;;;;10.48;7.25;;;16.50;99.90;;;;;;5132955;27;20062;-72
2023/09/08 06:03:34;;;;;;;9.52;6.72;;;16.50;99.90;;;;;;5134984;27;20042;-73
2023/09/08 06:05:59;;;;;;;7.75;6.32;;;16.60;99.90;;;;;;5133880;27;20047;-72
2023/09/08 06:08:25;;;;;;;11.07;7.60;;;16.70;99.90;;;;;;5133660;27;20067;-72
2023/09/08 06:10:51;;;;;;;8.98;6.93;;;16.80;99.90;;;;;;5129300;27;20035;-72
2023/09/08 06:13:16;;;;;;;8.25;6.80;;;16.80;99.90;;;;;;5114280;27;20048;-65
2023/09/08 06:15:42;;;;;;;8.90;6.60;;;16.90;99.90;;;;;;5132049;27;20047;-65
2023/09/08 06:18:08;;;;;;;8.25;6.97;;;16.90;99.90;;;;;;5127037;27;20119;-65
2023/09/08 06:20:34;;;;;;;8.65;6.82;;;17.00;99.90;;;;;;5134604;27;20126;-65
2023/09/08 06:23:00;;;;;;;8.25;6.43;;;17.10;99.90;;;;;;5133780;27;20460;-65
2023/09/08 06:25:28;;;;;;;8.30;6.60;;;17.20;99.90;;;;;;5132649;27;20098;-65
2023/09/08 06:27:54;;;;;;;8.45;6.30;;;17.30;99.90;;;;;;5133672;27;20042;-65
2023/09/08 06:30:19;;;;;;;8.70;6.85;;;17.30;99.90;;;;;;5134264;27;20042;-65
2023/09/08 06:32:45;;;;;;;9.05;7.30;;;17.40;99.90;;;;;;5114442;27;20379;-65
2023/09/08 06:35:11;;;;;;;8.32;7.00;;;17.50;99.90;;;;;;5125524;27;20051;-65
2023/09/08 06:37:38;;;;;;;9.10;6.75;;;17.60;99.90;;;;;;5133838;27;20558;-64
2023/09/08 06:40:05;;;;;;;8.65;6.90;;;17.70;99.90;;;;;;5133494;27;20126;-65
2023/09/08 06:42:31;;;;;;;9.48;7.45;;;17.80;99.90;;;;;;5133815;27;20047;-65
2023/09/08 06:44:57;;;;;;;9.10;7.00;;;17.90;99.90;;;;;;5133691;27;20043;-65
2023/09/08 06:47:22;;;;;;;9.68;7.25;;;18.00;99.90;;;;;;5134179;27;20072;-65
2023/09/08 06:49:48;;;;;;;9.02;6.80;;;18.10;99.90;;;;;;5132311;28;20078;-65
2023/09/08 06:52:14;;;;;;;10.18;7.30;;;18.10;99.90;;;;;;5134400;27;20043;-64
2023/09/08 06:54:40;;;;;;;8.13;7.10;;;18.20;99.90;;;;;;5132232;28;20043;-64
2023/09/08 06:57:05;;;;;;;11.07;7.25;;;18.30;99.90;;;;;;5132888;28;20180;-65
2023/09/08 06:59:31;;;;;;;9.63;7.07;;;18.40;99.90;;;;;;5123429;27;20384;-65
2023/09/08 07:01:57;;;;;;;8.60;7.10;;;18.50;99.90;;;;;;5148725;27;20051;-65
2023/09/08 07:04:22;;;;;;;9.40;6.90;;;18.60;99.90;;;;;;5154630;27;20039;-65
2023/09/08 07:06:49;;;;;;;8.25;6.43;;;18.60;99.90;;;;;;5131504;28;20099;-65
2023/09/08 07:09:15;;;;;;;9.13;7.07;;;18.70;99.90;;;;;;5138210;27;20117;-65
2023/09/08 07:11:41;;;;;;;8.93;6.72;;;18.90;99.90;;;;;;5154256;27;20552;-65
2023/09/08 07:14:07;;;;;;;9.82;7.43;;;18.90;99.90;;;;;;5154023;27;20122;-65
2023/09/08 07:16:32;;;;;;;9.48;6.72;;;19.00;99.90;;;;;;5146303;27;20376;-65
2023/09/08 07:19:00;;;;;;;8.20;6.45;;;19.20;99.90;;;;;;5145454;27;20162;-65
2023/09/08 07:21:26;;;;;;;8.18;6.47;;;19.30;99.90;;;;;;5152948;27;20402;-64
2023/09/08 07:23:53;;;;;;;8.05;6.78;;;19.40;99.90;;;;;;5154421;27;20039;-64
2023/09/08 07:26:19;;;;;;;7.75;6.10;;;19.50;99.90;;;;;;5157786;27;20379;-64
2023/09/08 07:28:45;;;;;;;7.82;6.55;;;19.70;99.90;;;;;;5157786;27;20045;-65
2023/09/08 07:31:11;;;;;;;7.95;6.35;;;19.80;99.90;;;;;;5138516;27;20394;-65
2023/09/08 07:33:37;;;;;;;7.60;6.20;;;19.90;99.90;;;;;;5156780;27;20470;-65
2023/09/08 07:36:05;;;;;;;8.73;6.45;;;20.10;99.90;;;;;;5156939;27;20047;-65
2023/09/08 07:38:31;;;;;;;7.82;6.28;;;20.20;99.90;;;;;;5156892;27;20041;-65
2023/09/08 07:40:59;;;;;;;9.40;6.53;;;20.30;99.90;;;;;;5156982;27;20046;-64
2023/09/08 07:43:25;;;;;;;8.70;6.38;;;20.40;99.90;;;;;;5156938;27;20047;-65
2023/09/08 07:45:51;;;;;;;7.70;5.88;;;20.50;99.90;;;;;;5156675;27;20110;-65
2023/09/08 07:48:17;;;;;;;7.43;6.22;;;20.60;99.90;;;;;;5146681;27;20114;-65
2023/09/08 07:50:42;;;;;;;7.90;6.22;;;20.80;99.90;;;;;;5151085;27;20462;-65
2023/09/08 07:53:08;;;;;;;7.70;6.28;;;20.90;99.90;;;;;;5138698;27;20049;-65
2023/09/08 07:55:34;;;;;;;7.75;5.80;;;21.00;99.90;;;;;;5156172;27;20050;-66
2023/09/08 07:58:01;;;;;;;7.55;6.40;;;21.20;99.90;;;;;;5157031;27;20042;-65
2023/09/08 08:00:27;;;;;;;6.97;5.18;;;21.30;99.90;;;;;;5151635;27;20483;-65
2023/09/08 08:02:57;;;;;;;6.60;5.32;;;21.40;99.90;;;;;;5136594;27;20070;-65
2023/09/08 08:05:24;;;;;;;7.25;5.38;;;21.60;99.90;;;;;;5144877;27;20042;-65
2023/09/08 08:07:50;;;;;;;7.53;5.32;;;21.70;99.90;;;;;;5153162;27;20050;-65
2023/09/08 08:10:17;;;;;;;6.57;5.00;;;21.80;99.90;;;;;;5151268;27;20050;-65
2023/09/08 08:12:43;;;;;;;7.15;4.85;;;22.00;99.90;;;;;;5154854;27;20441;-65
2023/09/08 08:15:10;;;;;;;4.93;4.03;;;22.10;99.90;;;;;;5154850;27;20112;-65
2023/09/08 08:17:37;;;;;;;5.95;4.10;;;22.20;99.90;;;;;;5149376;27;20369;-65
2023/09/08 08:20:10;;;;;;;6.47;4.82;;;22.40;99.90;;;;;;5137567;27;20050;-65
2023/09/08 08:22:37;;;;;;;7.22;4.30;;;22.50;99.90;;;;;;5129773;27;20118;-65
2023/09/08 08:25:03;;;;;;;5.38;4.25;;;22.60;99.90;;;;;;5138806;27;20379;-65
2023/09/08 08:27:30;;;;;;;6.13;4.53;;;22.80;99.90;;;;;;5156436;27;20051;-64
2023/09/08 08:29:59;;;;;;;5.28;4.10;;;22.90;99.90;;;;;;5156666;27;20121;-64
2023/09/08 08:32:25;;;;;;;5.05;4.25;;;23.10;99.90;;;;;;5116453;27;20593;-65
2023/09/08 08:34:51;;;;;;;5.68;4.18;;;23.20;99.90;;;;;;5154704;27;20092;-66
2023/09/08 08:37:18;;;;;;;5.20;4.07;;;23.30;99.90;;;;;;5155443;27;20498;-65
2023/09/08 08:39:44;;;;;;;6.57;4.20;;;23.40;99.90;;;;;;5156298;27;20145;-65
2023/09/08 08:42:10;;;;;;;4.97;3.78;;;23.50;99.90;;;;;;5155267;27;20039;-65
2023/09/08 08:44:38;;;;;;;5.38;4.20;;;23.70;99.90;;;;;;5154347;27;20545;-65
2023/09/08 08:47:07;;;;;;;4.57;3.75;;;23.80;99.90;;;;;;5154108;27;20430;-65
2023/09/08 08:49:33;;;;;;;5.50;3.72;;;23.90;99.90;;;;;;5136066;27;20053;-65
2023/09/08 08:52:03;;;;;;;5.47;3.58;;;24.10;99.90;;;;;;5146241;27;20399;-66
2023/09/08 08:54:29;;;;;;;4.72;3.70;;;24.20;99.90;;;;;;5156045;27;20042;-65
2023/09/08 08:56:56;;;;;;;5.70;4.00;;;24.30;99.90;;;;;;5155316;27;20494;-64
2023/09/08 08:59:23;;;;;;;4.93;3.50;;;24.40;99.90;;;;;;5155079;27;20122;-65
2023/09/08 09:01:49;;;;;;;5.38;3.70;;;24.50;99.90;;;;;;5155665;27;20084;-65
2023/09/08 09:04:16;;;;;;;6.18;4.20;;;24.60;99.90;;;;;;5156030;27;20624;-65
2023/09/08 09:06:42;;;;;;;6.38;4.03;;;24.80;99.90;;;;;;5155041;27;20083;-65
2023/09/08 09:09:10;;;;;;;6.07;3.72;;;24.90;99.90;;;;;;5155846;27;20042;-66
2023/09/08 09:11:36;;;;;;;5.55;3.55;;;24.90;99.90;;;;;;5156103;27;20075;-65
2023/09/08 09:14:02;;;;;;;5.32;3.42;;;25.00;99.90;;;;;;5155267;27;20034;-65
2023/09/08 09:16:28;;;;;;;4.82;3.80;;;25.00;99.90;;;;;;5153299;27;20038;-65
2023/09/08 09:18:56;;;;;;;5.35;3.40;;;25.20;99.90;;;;;;5136862;27;20060;-65
2023/09/08 09:21:22;;;;;;;5.65;3.47;;;25.30;99.90;;;;;;5155233;27;20038;-65
2023/09/08 09:23:48;;;;;;;5.28;3.85;;;25.40;99.90;;;;;;5137143;27;20041;-64
2023/09/08 09:26:24;;;;;;;4.93;3.47;;;25.40;99.90;;;;;;5155641;27;20042;-65
2023/09/08 09:28:51;;;;;;;5.35;3.38;;;25.50;99.90;;;;;;5152312;27;20050;-65
2023/09/08 09:31:18;;;;;;;4.55;3.70;;;25.60;99.90;;;;;;5152485;27;20050;-65
2023/09/08 09:33:45;;;;;;;6.07;3.47;;;25.70;99.90;;;;;;5145295;27;20051;-65
2023/09/08 09:36:20;;;;;;;4.57;3.55;;;25.80;99.90;;;;;;5127735;27;20047;-65
2023/09/08 09:38:47;;;;;;;6.15;3.83;;;25.90;99.90;;;;;;5151193;27;20065;-65
2023/09/08 09:41:13;;;;;;;4.00;3.33;;;25.90;99.90;;;;;;5154272;27;20042;-64
2023/09/08 09:43:38;;;;;;;4.80;3.67;;;26.00;99.90;;;;;;5153951;27;20041;-64
2023/09/08 09:46:08;;;;;;;4.57;3.50;;;26.10;99.90;;;;;;5137238;27;20378;-65
2023/09/08 09:48:35;;;;;;;4.68;3.40;;;26.20;99.90;;;;;;5155307;27;20038;-65
2023/09/08 09:51:23;;;;;;;4.88;3.88;;;26.20;99.90;;;;;;5151948;27;20461;-64
2023/09/08 09:53:55;;;;;;;4.95;3.85;;;26.30;99.90;;;;;;5147786;27;20498;-66
2023/09/08 09:56:23;;;;;;;5.03;3.58;;;26.40;99.90;;;;;;5155158;27;20038;-65
2023/09/08 09:58:52;;;;;;;6.95;3.63;;;26.50;99.90;;;;;;5154908;27;20034;-65
2023/09/08 10:01:18;;;;;;;4.45;3.30;;;26.60;99.90;;;;;;5154685;27;20046;-65
2023/09/08 10:03:44;;;;;;;4.53;3.28;;;26.70;99.90;;;;;;5154563;27;20043;-65
2023/09/08 10:06:10;;;;;;;4.10;3.40;;;26.80;99.90;;;;;;5153464;27;20050;-65
2023/09/08 10:08:36;;;;;;;4.70;3.58;;;26.80;99.90;;;;;;5155176;27;20050;-65
2023/09/08 10:11:07;;;;;;;5.45;3.10;;;26.90;99.90;;;;;;5154951;27;20060;-65
2023/09/08 10:13:44;;;;;;;4.55;3.00;;;26.90;99.90;;;;;;5135672;27;20083;-65
2023/09/08 10:16:15;;;;;;;3.38;2.92;;;27.00;99.90;;;;;;5154744;27;20071;-64
2023/09/08 10:18:45;;;;;;;3.53;3.10;;;27.10;99.90;;;;;;5155101;27;20038;-64
2023/09/08 10:21:12;;;;;;;4.72;3.50;;;27.20;99.90;;;;;;5136286;27;20631;-65
2023/09/08 10:23:44;;;;;;;4.20;3.00;;;27.30;99.90;;;;;;5155001;27;20506;-65
2023/09/08 10:26:11;;;;;;;5.07;3.72;;;27.40;99.90;;;;;;5152641;27;20410;-65
2023/09/08 10:28:38;;;;;;;4.43;3.45;;;27.70;99.90;;;;;;5154712;27;20047;-65
2023/09/08 10:31:05;;;;;;;4.05;3.47;;;27.80;99.90;;;;;;5135757;27;20046;-65
2023/09/08 10:33:32;;;;;;;4.10;3.28;;;27.90;99.90;;;;;;5153817;27;20031;-65
2023/09/08 10:36:02;;;;;;;4.00;2.88;;;28.00;99.90;;;;;;5153640;27;20042;-65
2023/09/08 10:38:35;;;;;;;6.78;3.22;;;28.20;99.90;;;;;;5154574;27;20046;-65
2023/09/08 10:41:16;;;;;;;6.10;3.95;;;28.40;99.90;;;;;;5154436;27;20046;-67
2023/09/08 10:43:55;;;;;;;4.38;3.40;;;28.60;99.90;;;;;;5154120;27;20042;-66
2023/09/08 10:46:22;;;;;;;3.90;3.20;;;28.70;99.90;;;;;;5154437;27;20069;-67
2023/09/08 10:48:48;;;;;;;4.13;3.00;;;28.80;99.90;;;;;;5154658;27;20038;-66
2023/09/08 10:51:22;;;;;;;5.57;3.30;;;29.00;99.90;;;;;;5153904;27;20043;-67
2023/09/08 10:53:51;;;;;;;4.88;3.47;;;29.10;99.90;;;;;;5153407;27;20058;-67
2023/09/08 10:56:18;;;;;;;4.20;3.05;;;29.10;99.90;;;;;;5154015;27;20039;-67
2023/09/08 10:58:49;;;;;;;4.20;2.97;;;29.20;99.90;;;;;;5153774;27;20043;-66
2023/09/08 11:01:26;;;;;;;5.28;3.40;;;29.30;99.90;;;;;;5153655;27;20495;-67
2023/09/08 11:03:53;;;;;;;3.90;3.00;;;29.30;99.90;;;;;;5151129;27;20057;-67
2023/09/08 11:06:22;;;;;;;5.28;3.10;;;29.20;99.90;;;;;;5134447;27;20127;-67
2023/09/08 11:08:49;;;;;;;5.47;3.10;;;29.20;99.90;;;;;;5154557;27;20079;-67
2023/09/08 11:11:16;;;;;;;5.40;3.10;;;29.10;99.90;;;;;;5135811;27;20051;-67
2023/09/08 11:13:45;;;;;;;4.47;3.17;;;29.10;99.90;;;;;;5142983;27;20080;-66
2023/09/08 11:16:11;;;;;;;5.22;3.28;;;29.00;99.90;;;;;;5131586;27;20054;-66
2023/09/08 11:18:37;;;;;;;6.40;2.85;;;28.90;99.90;;;;;;5139167;27;20475;-66
2023/09/08 11:21:08;;;;;;;4.70;2.90;;;28.80;99.90;;;;;;5154267;27;20046;-66
2023/09/08 11:23:34;;;;;;;4.50;3.28;;;28.80;99.90;;;;;;5153856;27;20047;-65
2023/09/08 11:26:00;;;;;;;3.78;3.20;;;28.70;99.90;;;;;;5153872;27;20042;-66
2023/09/08 11:28:28;;;;;;;3.58;2.92;;;28.60;99.90;;;;;;5153346;27;20062;-65
2023/09/08 11:30:55;;;;;;;3.95;2.97;;;28.50;99.90;;;;;;5153407;27;20043;-65
2023/09/08 11:33:25;;;;;;;5.15;2.90;;;28.50;99.90;;;;;;5153468;27;20376;-65
2023/09/08 11:35:54;;;;;;;4.22;3.13;;;28.50;99.90;;;;;;5152806;27;20076;-65
2023/09/08 11:38:30;;;;;;;4.05;3.05;;;28.50;99.90;;;;;;5151540;27;20035;-65
2023/09/08 11:40:58;;;;;;;4.22;3.05;;;28.50;99.90;;;;;;5148839;27;20051;-65
2023/09/08 11:43:25;;;;;;;4.10;2.88;;;28.50;99.90;;;;;;5153770;27;20129;-65
2023/09/08 11:45:51;;;;;;;4.20;3.15;;;28.50;99.90;;;;;;5153733;27;20049;-66
2023/09/08 11:48:17;;;;;;;5.60;3.28;;;28.50;99.90;;;;;;5153544;27;20039;-66
2023/09/08 11:50:43;;;;;;;4.72;3.05;;;28.60;99.90;;;;;;5135473;27;20497;-65
2023/09/08 11:53:09;;;;;;;3.65;2.92;;;28.60;99.90;;;;;;5153812;27;20046;-64
2023/09/08 11:55:39;;;;;;;4.07;2.78;;;28.60;99.90;;;;;;5149804;27;20053;-65
2023/09/08 11:58:05;;;;;;;3.88;3.10;;;28.60;99.90;;;;;;5153756;27;20122;-65
2023/09/08 12:00:32;;;;;;;4.70;3.50;;;28.60;99.90;;;;;;5152671;27;20119;-66
2023/09/08 12:03:15;;;;;;;4.47;3.40;;;28.60;99.90;;;;;;5153648;27;20103;-64
2023/09/08 12:05:42;;;;;;;4.25;3.35;;;28.60;99.90;;;;;;5153310;27;20129;-65
2023/09/08 12:08:07;;;;;;;5.47;3.20;;;28.60;99.90;;;;;;5156671;27;20035;-65
2023/09/08 12:10:41;;;;;;;7.47;3.22;;;28.70;99.90;;;;;;5156998;27;20050;-65
2023/09/08 12:13:07;;;;;;;3.67;2.90;;;28.70;99.90;;;;;;5138731;27;20129;-64
2023/09/08 12:15:40;;;;;;;4.40;2.90;;;28.80;99.90;;;;;;5153614;27;20114;-65
2023/09/08 12:18:08;;;;;;;6.53;3.22;;;28.70;99.90;;;;;;5127721;27;20050;-65
2023/09/08 12:20:34;;;;;;;4.55;3.10;;;28.70;99.90;;;;;;5156163;27;20039;-65
2023/09/08 12:23:07;;;;;;;3.50;2.88;;;28.70;99.90;;;;;;5147431;27;20039;-65
2023/09/08 12:25:33;;;;;;;3.65;3.15;;;28.80;99.90;;;;;;5154476;27;20046;-66
2023/09/08 12:27:59;;;;;;;4.97;2.78;;;28.80;99.90;;;;;;5137104;27;20391;-66
2023/09/08 12:30:32;;;;;;;3.40;2.90;;;28.80;99.90;;;;;;5153614;27;20042;-66
2023/09/08 12:33:00;;;;;;;3.60;2.83;;;28.80;99.90;;;;;;5148701;27;20104;-66
2023/09/08 12:35:26;;;;;;;3.60;3.05;;;28.80;99.90;;;;;;5130093;27;20039;-66
2023/09/08 12:38:00;;;;;;;6.13;3.15;;;28.90;99.90;;;;;;5153629;27;20035;-67
2023/09/08 12:40:27;;;;;;;4.72;3.47;;;28.80;99.90;;;;;;5136703;27;20082;-65
2023/09/08 12:42:53;;;;;;;4.65;3.40;;;28.90;99.90;;;;;;5131161;27;20035;-65
2023/09/08 12:45:22;;;;;;;7.55;3.65;;;28.80;99.90;;;;;;5130850;27;20126;-67